Time;durP1;ratioP1;P1;durP2;ratioP2;P2;SDS_P1;SDS_P2;PMS_P1;PMS_P2;Temp;Humidity;BMP_temperature;BMP_pressure;BME280_temperature;BME280_humidity;BME280_pressure;Samples;Min_cycle;Max_cycle;Signal;HPM_P1;HPM_P2
2022/01/15 00:02:22;;;;;;;152.63;58.42;;;;;;;;;;4996194;28;20381;-47
2022/01/15 00:04:53;;;;;;;162.38;59.85;;;;;;;;;;4995640;28;20026;-48
2022/01/15 00:07:18;;;;;;;163.82;59.25;;;;;;;;;;4995755;28;20022;-47
2022/01/15 00:09:49;;;;;;;162.68;58.75;;;;;;;;;;4995690;28;20026;-47
2022/01/15 00:12:17;;;;;;;160.73;60.85;;;;;;;;;;4995625;28;20052;-47
2022/01/15 00:14:45;;;;;;;172.13;58.53;;;;;;;;;;4995476;28;20373;-48
2022/01/15 00:17:18;;;;;;;156.20;55.83;;;;;;;;;;4995403;28;20092;-47
2022/01/15 00:19:43;;;;;;;153.68;57.20;;;;;;;;;;4995377;28;20377;-46
2022/01/15 00:22:10;;;;;;;157.80;60.80;;;;;;;;;;4995383;28;20018;-47
2022/01/15 00:24:35;;;;;;;170.05;62.00;;;;;;;;;;4995431;28;20042;-49
2022/01/15 00:27:06;;;;;;;179.55;60.22;;;;;;;;;;4995281;28;20015;-47
2022/01/15 00:29:32;;;;;;;177.35;58.20;;;;;;;;;;4995245;28;20370;-47
2022/01/15 00:31:57;;;;;;;166.77;59.42;;;;;;;;;;4995297;28;20018;-47
2022/01/15 00:34:22;;;;;;;174.75;59.92;;;;;;;;;;4995095;28;20113;-47
2022/01/15 00:36:47;;;;;;;168.63;59.03;;;;;;;;;;4994859;28;20497;-47
2022/01/15 00:39:13;;;;;;;172.77;57.67;;;;;;;;;;4995099;28;20470;-47
2022/01/15 00:41:38;;;;;;;185.75;59.92;;;;;;;;;;4977731;28;20466;-47
2022/01/15 00:44:03;;;;;;;184.98;58.70;;;;;;;;;;4994991;28;20374;-49
2022/01/15 00:46:28;;;;;;;186.70;57.20;;;;;;;;;;4994929;28;20385;-47
2022/01/15 00:48:53;;;;;;;173.88;58.92;;;;;;;;;;4994758;28;20018;-47
2022/01/15 00:51:19;;;;;;;153.20;54.38;;;;;;;;;;4994897;28;20093;-48
2022/01/15 00:53:47;;;;;;;168.27;59.03;;;;;;;;;;4994778;28;20492;-47
2022/01/15 00:56:12;;;;;;;178.10;57.42;;;;;;;;;;4994968;28;20105;-49
2022/01/15 00:58:37;;;;;;;160.63;55.90;;;;;;;;;;4994753;28;20441;-48
2022/01/15 01:01:07;;;;;;;186.73;57.85;;;;;;;;;;4994837;28;20026;-48
2022/01/15 01:03:36;;;;;;;174.35;59.67;;;;;;;;;;4994775;28;20014;-47
2022/01/15 01:06:01;;;;;;;193.82;61.03;;;;;;;;;;4994746;28;20434;-50
2022/01/15 01:08:27;;;;;;;185.50;59.95;;;;;;;;;;4994588;28;20057;-50
2022/01/15 01:10:56;;;;;;;188.93;58.20;;;;;;;;;;4994621;28;20021;-48
2022/01/15 01:24:01;;;;;;;172.48;56.45;;;;;;;;;;4994590;28;20034;-48
2022/01/15 01:26:32;;;;;;;190.35;59.85;;;;;;;;;;4994346;28;20022;-47
2022/01/15 01:29:12;;;;;;;187.15;57.67;;;;;;;;;;4994570;28;20105;-49
2022/01/15 01:31:51;;;;;;;186.95;58.15;;;;;;;;;;4994458;28;20049;-47
2022/01/15 01:34:17;;;;;;;198.60;58.28;;;;;;;;;;4994445;28;20373;-47
2022/01/15 01:36:57;;;;;;;197.35;61.95;;;;;;;;;;5001501;23;20652;-50
2022/01/15 01:39:25;;;;;;;201.20;59.20;;;;;;;;;;4994466;28;20508;-47
2022/01/15 01:42:08;;;;;;;199.23;57.08;;;;;;;;;;4994331;28;20022;-47
2022/01/15 01:44:39;;;;;;;206.75;58.63;;;;;;;;;;4994391;28;20102;-50
2022/01/15 01:47:21;;;;;;;218.27;60.45;;;;;;;;;;4994243;28;20026;-47
2022/01/15 01:49:47;;;;;;;259.73;63.20;;;;;;;;;;4994346;28;20053;-49
2022/01/15 01:52:12;;;;;;;224.23;61.08;;;;;;;;;;4994238;28;20023;-47
2022/01/15 01:54:37;;;;;;;256.02;62.08;;;;;;;;;;4996040;28;20030;-48
2022/01/15 01:57:03;;;;;;;217.88;58.08;;;;;;;;;;4998050;28;20025;-50
2022/01/15 01:59:28;;;;;;;226.05;61.22;;;;;;;;;;4997891;28;20369;-49
2022/01/15 02:01:53;;;;;;;237.32;61.08;;;;;;;;;;4998035;28;20022;-46
2022/01/15 02:04:19;;;;;;;258.55;61.78;;;;;;;;;;4998012;28;20014;-49
2022/01/15 02:06:47;;;;;;;289.35;65.50;;;;;;;;;;4997785;28;20504;-47
2022/01/15 02:09:15;;;;;;;292.45;65.60;;;;;;;;;;4997718;28;20100;-48
2022/01/15 02:11:44;;;;;;;287.27;68.47;;;;;;;;;;4997694;28;20018;-47
2022/01/15 02:14:09;;;;;;;259.88;64.35;;;;;;;;;;4997512;28;20027;-46
2022/01/15 02:16:34;;;;;;;257.77;62.47;;;;;;;;;;4997507;28;20018;-47
2022/01/15 02:18:59;;;;;;;297.67;65.45;;;;;;;;;;4980001;28;20453;-46
2022/01/15 02:24:08;;;;;;;314.05;65.05;;;;;;;;;;4997858;28;20206;-47
2022/01/15 02:26:37;;;;;;;348.95;71.38;;;;;;;;;;4997575;28;20506;-47
2022/01/15 02:29:08;;;;;;;303.70;70.20;;;;;;;;;;4997394;28;20033;-46
2022/01/15 02:31:34;;;;;;;289.17;67.47;;;;;;;;;;4997446;28;20076;-46
2022/01/15 02:34:04;;;;;;;327.80;71.07;;;;;;;;;;4997232;28;20050;-48
2022/01/15 02:36:33;;;;;;;233.18;54.03;;;;;;;;;;4996901;28;20548;-47
2022/01/15 02:38:58;;;;;;;375.20;71.32;;;;;;;;;;4997290;28;20026;-47
2022/01/15 02:41:29;;;;;;;361.77;72.55;;;;;;;;;;4997221;28;20077;-48
2022/01/15 02:43:55;;;;;;;345.48;71.47;;;;;;;;;;4997134;28;20018;-49
2022/01/15 02:49:10;;;;;;;342.70;69.90;;;;;;;;;;4936934;29;20032;-49
2022/01/15 02:51:35;;;;;;;318.30;70.88;;;;;;;;;;4936965;29;20094;-46
2022/01/15 02:54:02;;;;;;;337.60;70.78;;;;;;;;;;4936881;29;20550;-48
2022/01/15 02:56:37;;;;;;;323.27;68.82;;;;;;;;;;4937011;29;20039;-46
2022/01/15 02:59:04;;;;;;;360.90;74.50;;;;;;;;;;4936709;29;20114;-46
2022/01/15 03:01:29;;;;;;;371.35;71.05;;;;;;;;;;4936940;29;20053;-48
2022/01/15 03:03:57;;;;;;;325.13;71.85;;;;;;;;;;4936887;29;20038;-48
2022/01/15 03:06:27;;;;;;;378.60;72.82;;;;;;;;;;4935779;29;20028;-46
2022/01/15 03:08:53;;;;;;;350.55;70.88;;;;;;;;;;4936778;29;20024;-49
2022/01/15 03:11:22;;;;;;;346.30;70.38;;;;;;;;;;4936630;29;20046;-47
2022/01/15 03:13:47;;;;;;;279.90;65.03;;;;;;;;;;4936609;29;20028;-48
2022/01/15 03:16:14;;;;;;;350.63;67.35;;;;;;;;;;4936583;29;20398;-52
2022/01/15 03:18:42;;;;;;;369.67;71.32;;;;;;;;;;4991852;28;20045;-46
2022/01/15 03:21:07;;;;;;;385.05;69.82;;;;;;;;;;4996365;28;20022;-46
2022/01/15 03:23:37;;;;;;;306.05;67.05;;;;;;;;;;4996564;28;20029;-46
2022/01/15 03:26:03;;;;;;;;;;;;;;;;;;4996817;28;20050;-47
2022/01/15 03:28:28;;;;;;;377.77;64.90;;;;;;;;;;4996369;28;20288;-47
2022/01/15 03:30:53;;;;;;;363.05;66.18;;;;;;;;;;4996296;28;20010;-49
2022/01/15 03:33:18;;;;;;;352.55;65.10;;;;;;;;;;4996187;28;20025;-46
2022/01/15 03:35:44;;;;;;;350.05;67.47;;;;;;;;;;4996063;28;20068;-48
2022/01/15 03:38:10;;;;;;;351.65;65.85;;;;;;;;;;4996024;28;20073;-47
2022/01/15 03:40:35;;;;;;;377.42;66.20;;;;;;;;;;4996115;28;20014;-49
2022/01/15 03:43:01;;;;;;;325.75;66.60;;;;;;;;;;4996231;28;20097;-46
2022/01/15 03:45:27;;;;;;;354.70;67.13;;;;;;;;;;4996028;28;20030;-49
2022/01/15 03:47:52;;;;;;;365.65;70.30;;;;;;;;;;4996003;28;20494;-46
2022/01/15 03:50:24;;;;;;;408.15;72.63;;;;;;;;;;4996000;28;20029;-46
2022/01/15 03:52:49;;;;;;;371.70;72.57;;;;;;;;;;4995937;28;20028;-49
2022/01/15 03:55:22;;;;;;;369.25;68.85;;;;;;;;;;4996130;28;20026;-51
2022/01/15 03:57:48;;;;;;;309.60;65.82;;;;;;;;;;4996939;28;20030;-47
2022/01/15 04:00:20;;;;;;;287.83;59.22;;;;;;;;;;4996162;28;20025;-47
2022/01/15 04:02:46;;;;;;;251.50;58.63;;;;;;;;;;4995937;28;20014;-48
2022/01/15 04:05:15;;;;;;;241.23;56.15;;;;;;;;;;4995619;28;20033;-47
2022/01/15 04:07:40;;;;;;;259.52;56.95;;;;;;;;;;4995601;28;20429;-48
2022/01/15 04:10:06;;;;;;;247.80;55.80;;;;;;;;;;4995490;28;20023;-48
2022/01/15 04:12:31;;;;;;;294.73;60.28;;;;;;;;;;4995457;28;20057;-47
2022/01/15 04:14:57;;;;;;;254.27;57.00;;;;;;;;;;4995391;28;20029;-48
2022/01/15 04:17:25;;;;;;;286.50;58.90;;;;;;;;;;4995208;28;20018;-47
2022/01/15 04:19:51;;;;;;;232.88;54.47;;;;;;;;;;4995208;28;20089;-48
2022/01/15 04:22:19;;;;;;;253.80;56.58;;;;;;;;;;4995365;28;20018;-49
2022/01/15 04:24:44;;;;;;;272.85;57.15;;;;;;;;;;4995217;28;20026;-47
2022/01/15 04:27:09;;;;;;;298.30;58.40;;;;;;;;;;4977812;28;20121;-47
2022/01/15 04:29:40;;;;;;;252.45;55.45;;;;;;;;;;4995147;28;20350;-48
2022/01/15 04:32:05;;;;;;;298.52;58.53;;;;;;;;;;4995138;28;20493;-48
2022/01/15 04:34:31;;;;;;;297.20;58.63;;;;;;;;;;4995087;28;20108;-48
2022/01/15 04:37:02;;;;;;;268.48;56.97;;;;;;;;;;4994822;28;20378;-47
2022/01/15 04:39:28;;;;;;;320.52;60.75;;;;;;;;;;4995019;28;20023;-48
2022/01/15 04:41:53;;;;;;;314.92;61.75;;;;;;;;;;4994955;28;20342;-48
2022/01/15 04:44:19;;;;;;;287.27;57.13;;;;;;;;;;4994982;28;20041;-48
2022/01/15 04:46:47;;;;;;;324.33;60.47;;;;;;;;;;4994936;28;20014;-50
2022/01/15 04:49:12;;;;;;;309.05;57.88;;;;;;;;;;4994967;28;20413;-47
2022/01/15 04:51:37;;;;;;;271.83;58.97;;;;;;;;;;4994936;28;20028;-48
2022/01/15 04:54:03;;;;;;;306.83;57.72;;;;;;;;;;4994773;28;20034;-47
2022/01/15 04:56:29;;;;;;;308.83;61.33;;;;;;;;;;4994799;28;20018;-49
2022/01/15 04:58:57;;;;;;;296.27;56.40;;;;;;;;;;4994827;28;20018;-47
2022/01/15 05:01:22;;;;;;;326.63;61.95;;;;;;;;;;4994747;28;20022;-48
2022/01/15 05:03:47;;;;;;;323.13;61.10;;;;;;;;;;4994633;28;20381;-49
2022/01/15 05:06:13;;;;;;;282.17;57.72;;;;;;;;;;4994804;28;20049;-48
2022/01/15 05:08:40;;;;;;;292.48;59.53;;;;;;;;;;4994667;28;20057;-49
2022/01/15 05:11:13;;;;;;;289.48;57.08;;;;;;;;;;4994693;28;20106;-48
2022/01/15 05:13:39;;;;;;;309.08;58.78;;;;;;;;;;4994493;28;20049;-47
2022/01/15 05:16:04;;;;;;;246.20;53.22;;;;;;;;;;4994527;28;20470;-48
2022/01/15 05:18:30;;;;;;;244.13;52.63;;;;;;;;;;4994603;28;20026;-49
2022/01/15 05:20:56;;;;;;;233.15;50.20;;;;;;;;;;4994420;28;20347;-50
2022/01/15 05:23:22;;;;;;;230.30;47.03;;;;;;;;;;4994381;28;20480;-48
2022/01/15 05:25:47;;;;;;;197.68;46.55;;;;;;;;;;4994408;28;20022;-49
2022/01/15 05:28:15;;;;;;;193.27;44.90;;;;;;;;;;4994565;28;20037;-47
2022/01/15 05:30:43;;;;;;;204.57;46.00;;;;;;;;;;4998217;28;20101;-49
2022/01/15 05:33:08;;;;;;;214.32;45.83;;;;;;;;;;4998566;28;20050;-48
2022/01/15 05:35:33;;;;;;;206.20;47.42;;;;;;;;;;4980933;28;20429;-49
2022/01/15 05:37:59;;;;;;;198.20;44.88;;;;;;;;;;4998215;28;20096;-47
2022/01/15 05:40:25;;;;;;;191.50;47.00;;;;;;;;;;4998312;28;20497;-47
2022/01/15 05:42:52;;;;;;;183.38;46.90;;;;;;;;;;4998304;28;20446;-47
2022/01/15 05:45:18;;;;;;;184.90;45.65;;;;;;;;;;4998208;28;20543;-47
2022/01/15 05:47:44;;;;;;;165.07;44.15;;;;;;;;;;4998343;28;20022;-49
2022/01/15 05:50:09;;;;;;;174.82;47.60;;;;;;;;;;4998170;28;20515;-47
2022/01/15 05:52:34;;;;;;;186.05;44.72;;;;;;;;;;4998194;28;20030;-48
2022/01/15 05:55:01;;;;;;;187.85;43.88;;;;;;;;;;4998030;28;20057;-47
2022/01/15 05:57:27;;;;;;;178.35;43.80;;;;;;;;;;4998136;28;20018;-49
2022/01/15 05:59:52;;;;;;;184.65;45.83;;;;;;;;;;4997893;28;20055;-48
2022/01/15 06:02:18;;;;;;;192.55;48.58;;;;;;;;;;4997851;28;20018;-47
2022/01/15 06:04:46;;;;;;;187.05;46.65;;;;;;;;;;4997778;28;20018;-47
2022/01/15 06:07:11;;;;;;;188.20;45.70;;;;;;;;;;4997730;28;20029;-50
2022/01/15 06:09:36;;;;;;;209.63;47.67;;;;;;;;;;4997727;28;20015;-48
2022/01/15 06:12:02;;;;;;;202.32;44.67;;;;;;;;;;4997854;28;20464;-48
2022/01/15 06:14:28;;;;;;;224.65;46.40;;;;;;;;;;4997690;28;20473;-47
2022/01/15 06:16:53;;;;;;;240.57;48.50;;;;;;;;;;4997746;28;20099;-48
2022/01/15 06:19:20;;;;;;;209.38;47.92;;;;;;;;;;4997651;28;20093;-48
2022/01/15 06:21:45;;;;;;;255.70;52.30;;;;;;;;;;4997740;28;20022;-47
2022/01/15 06:24:10;;;;;;;208.75;51.17;;;;;;;;;;4997516;28;20022;-47
2022/01/15 06:26:39;;;;;;;198.40;47.63;;;;;;;;;;4980176;28;20492;-48
2022/01/15 06:29:04;;;;;;;237.05;49.63;;;;;;;;;;4997592;28;20026;-47
2022/01/15 06:31:31;;;;;;;203.70;47.92;;;;;;;;;;4997467;28;20022;-48
2022/01/15 06:34:01;;;;;;;183.35;44.53;;;;;;;;;;4997584;28;20022;-51
2022/01/15 06:36:26;;;;;;;;;;;;;;;;;;4997372;28;20042;-48
2022/01/15 06:38:51;;;;;;;168.50;42.20;;;;;;;;;;4997284;28;20289;-47
2022/01/15 06:41:17;;;;;;;166.15;41.17;;;;;;;;;;4997198;28;20033;-50
2022/01/15 06:43:42;;;;;;;129.55;39.13;;;;;;;;;;4998433;28;20026;-48
2022/01/15 06:46:07;;;;;;;145.77;39.03;;;;;;;;;;4997256;28;20029;-47
2022/01/15 06:48:32;;;;;;;140.15;42.60;;;;;;;;;;4997157;28;20081;-47
2022/01/15 06:50:58;;;;;;;150.80;42.45;;;;;;;;;;4997274;28;20385;-47
2022/01/15 06:53:23;;;;;;;145.65;41.90;;;;;;;;;;4996994;28;20025;-47
2022/01/15 06:55:52;;;;;;;148.45;41.60;;;;;;;;;;4996921;28;20022;-47
2022/01/15 06:58:23;;;;;;;148.05;43.13;;;;;;;;;;4996864;28;20014;-48
2022/01/15 07:00:48;;;;;;;;;;;;;;;;;;4997414;28;20481;-47
2022/01/15 07:03:13;;;;;;;129.88;40.42;;;;;;;;;;4996835;28;20001;-48
2022/01/15 07:05:41;;;;;;;124.35;40.20;;;;;;;;;;4996802;28;20110;-47
2022/01/15 07:08:07;;;;;;;131.55;39.97;;;;;;;;;;4996655;28;20046;-47
2022/01/15 07:10:33;;;;;;;140.68;40.70;;;;;;;;;;4996647;28;20365;-48
2022/01/15 07:13:01;;;;;;;135.10;41.72;;;;;;;;;;4996667;28;20080;-47
2022/01/15 07:15:26;;;;;;;132.35;42.92;;;;;;;;;;4996531;28;20019;-49
2022/01/15 07:17:59;;;;;;;128.95;40.65;;;;;;;;;;4996487;28;20101;-47
2022/01/15 07:20:27;;;;;;;124.80;41.90;;;;;;;;;;4996552;28;20102;-47
2022/01/15 07:22:52;;;;;;;125.05;40.75;;;;;;;;;;4996339;28;20014;-47
2022/01/15 07:25:22;;;;;;;149.00;41.22;;;;;;;;;;4996482;28;20469;-49
2022/01/15 07:27:53;;;;;;;122.13;38.83;;;;;;;;;;4996530;28;20029;-47
2022/01/15 07:30:21;;;;;;;139.15;41.05;;;;;;;;;;4996310;28;20377;-47
2022/01/15 07:32:49;;;;;;;130.05;43.13;;;;;;;;;;4996188;28;20034;-47
2022/01/15 07:35:17;;;;;;;163.43;43.72;;;;;;;;;;4996323;28;20466;-49
2022/01/15 07:37:42;;;;;;;141.60;41.85;;;;;;;;;;4996000;28;20672;-48
2022/01/15 07:40:08;;;;;;;141.68;43.92;;;;;;;;;;4996159;28;20068;-48
2022/01/15 07:42:36;;;;;;;138.15;43.95;;;;;;;;;;4996138;28;20093;-48
2022/01/15 07:45:09;;;;;;;132.48;43.75;;;;;;;;;;4996118;28;20022;-48
2022/01/15 07:47:35;;;;;;;137.63;43.17;;;;;;;;;;4996193;28;20074;-47
2022/01/15 07:50:05;;;;;;;133.48;42.80;;;;;;;;;;4996026;28;20483;-47
2022/01/15 07:52:30;;;;;;;133.87;42.57;;;;;;;;;;4995345;28;20036;-47
2022/01/15 07:55:00;;;;;;;134.55;43.20;;;;;;;;;;4995780;28;20836;-47
2022/01/15 07:57:25;;;;;;;138.68;43.80;;;;;;;;;;4995749;28;20060;-47
2022/01/15 07:59:50;;;;;;;136.82;41.50;;;;;;;;;;4995787;28;20023;-48
2022/01/15 08:02:19;;;;;;;141.32;43.20;;;;;;;;;;4978613;28;20037;-48
2022/01/15 08:04:47;;;;;;;130.77;44.40;;;;;;;;;;4995601;28;20026;-47
2022/01/15 08:07:12;;;;;;;136.60;44.97;;;;;;;;;;4995568;28;20103;-47
2022/01/15 08:09:38;;;;;;;143.18;45.40;;;;;;;;;;4995458;28;20486;-47
2022/01/15 08:12:06;;;;;;;146.63;44.92;;;;;;;;;;4995666;28;20026;-47
2022/01/15 08:14:31;;;;;;;146.30;45.72;;;;;;;;;;4995477;28;20025;-50
2022/01/15 08:16:57;;;;;;;133.88;44.55;;;;;;;;;;4995531;28;20015;-50
2022/01/15 08:19:22;;;;;;;141.10;44.55;;;;;;;;;;4995532;28;20057;-50
2022/01/15 08:21:52;;;;;;;135.38;45.30;;;;;;;;;;4995347;28;20097;-47
2022/01/15 08:24:17;;;;;;;164.15;47.85;;;;;;;;;;4995411;28;20089;-48
2022/01/15 08:26:42;;;;;;;126.70;43.33;;;;;;;;;;4995321;28;20022;-47
2022/01/15 08:29:10;;;;;;;139.13;47.67;;;;;;;;;;4995329;28;20026;-48
2022/01/15 08:31:37;;;;;;;127.75;44.50;;;;;;;;;;4995073;28;20081;-48
2022/01/15 08:34:02;;;;;;;135.45;46.75;;;;;;;;;;4994959;28;20037;-50
2022/01/15 08:36:36;;;;;;;140.02;44.17;;;;;;;;;;4994952;28;20022;-49
2022/01/15 08:39:08;;;;;;;150.27;45.47;;;;;;;;;;4995071;28;20069;-49
2022/01/15 08:41:33;;;;;;;147.55;44.35;;;;;;;;;;4977372;28;20105;-48
2022/01/15 08:43:58;;;;;;;156.27;46.75;;;;;;;;;;4994967;28;20061;-48
2022/01/15 08:46:24;;;;;;;142.18;46.53;;;;;;;;;;4994787;28;20022;-47
2022/01/15 08:48:53;;;;;;;164.13;46.30;;;;;;;;;;4994802;28;20025;-48
2022/01/15 08:51:18;;;;;;;166.07;46.28;;;;;;;;;;4994928;28;20026;-49
2022/01/15 08:53:46;;;;;;;139.55;44.00;;;;;;;;;;4994751;28;20029;-47
2022/01/15 08:56:14;;;;;;;142.90;46.53;;;;;;;;;;4994840;28;20025;-47
2022/01/15 08:58:39;;;;;;;146.15;47.58;;;;;;;;;;4994687;28;20094;-47
2022/01/15 09:01:05;;;;;;;145.65;49.67;;;;;;;;;;4994888;28;20601;-47
2022/01/15 09:03:30;;;;;;;132.32;46.72;;;;;;;;;;4976724;28;20045;-48
2022/01/15 09:06:06;;;;;;;132.73;45.15;;;;;;;;;;4994632;28;20022;-48
2022/01/15 09:08:36;;;;;;;135.52;47.30;;;;;;;;;;4994813;28;20029;-48
2022/01/15 09:11:02;;;;;;;121.20;43.90;;;;;;;;;;4994763;28;20469;-50
2022/01/15 09:13:32;;;;;;;103.30;40.92;;;;;;;;;;4994641;28;20027;-48
2022/01/15 09:15:58;;;;;;;105.03;40.00;;;;;;;;;;4994548;28;20030;-47
2022/01/15 09:18:26;;;;;;;93.45;39.10;;;;;;;;;;4994713;28;20025;-48
2022/01/15 09:20:51;;;;;;;127.22;41.10;;;;;;;;;;4994563;28;20045;-47
2022/01/15 09:23:17;;;;;;;102.32;40.25;;;;;;;;;;4994643;28;20470;-48
2022/01/15 09:25:42;;;;;;;96.05;39.35;;;;;;;;;;4994578;28;20041;-48
2022/01/15 09:30:59;;;;;;;91.40;36.85;;;;;;;;;;4994731;28;20093;-47
2022/01/15 09:33:24;;;;;;;92.65;37.90;;;;;;;;;;4994581;28;20073;-47
2022/01/15 09:35:49;;;;;;;96.68;39.50;;;;;;;;;;4994454;28;20026;-50
2022/01/15 09:38:15;;;;;;;93.43;37.40;;;;;;;;;;4994104;28;20524;-49
2022/01/15 09:40:41;;;;;;;103.10;40.35;;;;;;;;;;4994561;28;20014;-47
2022/01/15 09:43:09;;;;;;;99.15;39.95;;;;;;;;;;4994449;28;20023;-47
2022/01/15 09:45:39;;;;;;;85.25;35.75;;;;;;;;;;4994372;28;20026;-47
2022/01/15 09:48:05;;;;;;;82.25;35.08;;;;;;;;;;4994451;28;20068;-50
2022/01/15 09:50:31;;;;;;;70.78;32.65;;;;;;;;;;4994332;28;20030;-48
2022/01/15 09:53:02;;;;;;;75.00;33.47;;;;;;;;;;4994280;28;20018;-46
2022/01/15 09:55:30;;;;;;;72.38;32.67;;;;;;;;;;4994191;28;20026;-49
2022/01/15 09:57:56;;;;;;;86.07;35.47;;;;;;;;;;4994337;28;20164;-49
2022/01/15 10:00:22;;;;;;;74.90;33.08;;;;;;;;;;4994166;28;20071;-48
2022/01/15 10:02:51;;;;;;;72.80;33.00;;;;;;;;;;4994194;28;20023;-47
2022/01/15 10:05:17;;;;;;;79.70;35.72;;;;;;;;;;4994197;28;20023;-48
2022/01/15 10:08:02;;;;;;;78.72;34.03;;;;;;;;;;4994347;28;20112;-47
2022/01/15 10:10:35;;;;;;;76.60;35.58;;;;;;;;;;4953393;29;20047;-50
2022/01/15 10:13:15;;;;;;;74.00;36.42;;;;;;;;;;4953472;29;20034;-47
2022/01/15 10:15:43;;;;;;;73.60;32.83;;;;;;;;;;4995933;28;20019;-47
2022/01/15 10:18:22;;;;;;;69.57;33.80;;;;;;;;;;4997720;28;20083;-47
2022/01/15 10:20:47;;;;;;;72.30;32.35;;;;;;;;;;4997448;28;20034;-50
2022/01/15 10:23:16;;;;;;;70.78;32.80;;;;;;;;;;4997543;28;20019;-48
2022/01/15 10:25:48;;;;;;;76.47;34.97;;;;;;;;;;4997609;28;20047;-49
2022/01/15 10:28:13;;;;;;;76.32;34.83;;;;;;;;;;4997517;28;20014;-48
2022/01/15 10:30:41;;;;;;;79.88;35.60;;;;;;;;;;4997514;28;20026;-48
2022/01/15 10:33:08;;;;;;;83.85;37.38;;;;;;;;;;4997413;28;20029;-48
2022/01/15 10:35:35;;;;;;;81.45;36.13;;;;;;;;;;4997399;28;20462;-48
2022/01/15 10:38:06;;;;;;;86.43;36.70;;;;;;;;;;4997122;28;20096;-48
2022/01/15 10:40:39;;;;;;;79.10;36.03;;;;;;;;;;4997278;28;20030;-47
2022/01/15 10:43:04;;;;;;;76.68;33.50;;;;;;;;;;4998349;28;20019;-47
2022/01/15 10:45:34;;;;;;;74.75;34.80;;;;;;;;;;4997413;28;20072;-47
2022/01/15 10:48:02;;;;;;;73.10;34.42;;;;;;;;;;4996736;28;20512;-47
2022/01/15 10:50:29;;;;;;;73.22;33.25;;;;;;;;;;4996423;28;20024;-48
2022/01/15 10:52:55;;;;;;;78.50;35.13;;;;;;;;;;4997581;28;20084;-47
2022/01/15 10:55:26;;;;;;;67.95;31.42;;;;;;;;;;4997671;28;20029;-48
2022/01/15 10:57:58;;;;;;;76.38;33.58;;;;;;;;;;4997351;28;20098;-47
2022/01/15 11:00:35;;;;;;;66.22;30.88;;;;;;;;;;4996991;28;20342;-48
2022/01/15 11:03:02;;;;;;;68.70;31.52;;;;;;;;;;4977849;28;20421;-48
2022/01/15 11:05:28;;;;;;;67.05;32.53;;;;;;;;;;4977814;28;20029;-49
2022/01/15 11:08:02;;;;;;;66.25;31.08;;;;;;;;;;4977860;28;20102;-48
2022/01/15 11:10:27;;;;;;;64.55;31.27;;;;;;;;;;4984757;28;20397;-47
2022/01/15 11:12:53;;;;;;;61.00;30.90;;;;;;;;;;4997052;28;20072;-48
2022/01/15 11:15:21;;;;;;;54.88;28.83;;;;;;;;;;4997073;28;20110;-49
2022/01/15 11:17:46;;;;;;;59.50;29.23;;;;;;;;;;4996920;28;20098;-50
2022/01/15 11:20:18;;;;;;;63.20;29.55;;;;;;;;;;4997271;28;20065;-48
2022/01/15 11:22:43;;;;;;;61.33;29.88;;;;;;;;;;4997037;28;20037;-47
2022/01/15 11:25:11;;;;;;;56.90;28.60;;;;;;;;;;4997004;28;20026;-47
2022/01/15 11:27:41;;;;;;;60.63;31.40;;;;;;;;;;4995937;28;20066;-48
2022/01/15 11:30:10;;;;;;;58.55;31.55;;;;;;;;;;4996812;28;20019;-48
2022/01/15 11:32:35;;;;;;;59.55;30.30;;;;;;;;;;4996815;28;20089;-48
2022/01/15 11:35:03;;;;;;;60.47;29.35;;;;;;;;;;4996703;28;20470;-49
2022/01/15 11:37:40;;;;;;;67.38;32.78;;;;;;;;;;4996390;28;20046;-47
2022/01/15 11:40:24;;;;;;;68.10;32.30;;;;;;;;;;4996590;28;20184;-47
2022/01/15 11:42:49;;;;;;;58.63;31.13;;;;;;;;;;4996604;28;20088;-48
2022/01/15 11:45:33;;;;;;;53.30;28.55;;;;;;;;;;4996486;28;20392;-47
2022/01/15 11:48:17;;;;;;;58.97;29.95;;;;;;;;;;4996481;28;20023;-48
2022/01/15 11:51:08;;;;;;;55.83;29.98;;;;;;;;;;4996283;28;20034;-48
2022/01/15 11:53:49;;;;;;;51.80;29.63;;;;;;;;;;4950907;28;20126;-49
2022/01/15 11:56:19;;;;;;;66.40;34.13;;;;;;;;;;4996348;28;20021;-48
2022/01/15 11:58:44;;;;;;;63.70;33.60;;;;;;;;;;4995897;28;20014;-48
2022/01/15 12:01:28;;;;;;;65.05;32.28;;;;;;;;;;4995817;28;20018;-48
2022/01/15 12:04:13;;;;;;;70.75;35.08;;;;;;;;;;4995673;28;20102;-49
2022/01/15 12:06:57;;;;;;;65.88;32.72;;;;;;;;;;4995670;28;20022;-50
2022/01/15 12:09:34;;;;;;;73.07;37.72;;;;;;;;;;4976402;28;20034;-49
2022/01/15 12:12:00;;;;;;;76.88;36.53;;;;;;;;;;4976149;28;20019;-48
2022/01/15 12:14:44;;;;;;;71.55;33.70;;;;;;;;;;4975899;28;20051;-47
2022/01/15 12:17:35;;;;;;;59.55;33.88;;;;;;;;;;4976195;28;20045;-47
2022/01/15 12:20:00;;;;;;;;;;;;;;;;;;4916865;29;20476;-48
2022/01/15 12:22:43;;;;;;;70.50;36.95;;;;;;;;;;4916391;29;19907;-48
2022/01/15 12:25:12;;;;;;;66.07;35.70;;;;;;;;;;4916432;29;20028;-47
2022/01/15 12:27:38;;;;;;;72.93;40.07;;;;;;;;;;4935986;28;20045;-48
2022/01/15 12:30:11;;;;;;;63.65;33.47;;;;;;;;;;4976047;28;20500;-50
2022/01/15 12:32:39;;;;;;;65.35;36.78;;;;;;;;;;4975936;28;20029;-50
2022/01/15 12:35:14;;;;;;;66.22;35.75;;;;;;;;;;4975741;28;20114;-48
2022/01/15 12:38:02;;;;;;;58.95;34.63;;;;;;;;;;4975316;28;20071;-48
2022/01/15 12:40:31;;;;;;;60.47;33.90;;;;;;;;;;4916060;29;20047;-48
2022/01/15 12:43:07;;;;;;;67.18;36.33;;;;;;;;;;4916280;29;20024;-50
2022/01/15 12:45:33;;;;;;;65.15;36.83;;;;;;;;;;4975696;28;20030;-47
2022/01/15 12:47:58;;;;;;;70.75;36.97;;;;;;;;;;4975780;28;20021;-47
2022/01/15 12:50:24;;;;;;;64.93;36.08;;;;;;;;;;4975661;28;20023;-47
2022/01/15 12:53:00;;;;;;;70.53;37.45;;;;;;;;;;4975586;28;20058;-49
2022/01/15 12:55:35;;;;;;;64.88;33.30;;;;;;;;;;4975416;28;20490;-48
2022/01/15 12:58:06;;;;;;;69.15;34.20;;;;;;;;;;4975681;28;20088;-51
2022/01/15 13:00:33;;;;;;;63.38;33.50;;;;;;;;;;4991251;28;20018;-48
2022/01/15 13:02:59;;;;;;;58.20;31.85;;;;;;;;;;4994811;28;20033;-47
2022/01/15 13:05:26;;;;;;;62.05;33.35;;;;;;;;;;4994741;28;20037;-47
2022/01/15 13:08:06;;;;;;;58.90;32.42;;;;;;;;;;4993592;28;20517;-47
2022/01/15 13:10:51;;;;;;;61.83;30.85;;;;;;;;;;4994649;28;20365;-48
2022/01/15 13:13:20;;;;;;;56.92;32.25;;;;;;;;;;4994754;28;20024;-47
2022/01/15 13:15:48;;;;;;;55.23;32.67;;;;;;;;;;4977242;28;20027;-49
2022/01/15 13:18:15;;;;;;;64.22;33.30;;;;;;;;;;4994659;28;20269;-50
2022/01/15 13:20:41;;;;;;;63.80;32.42;;;;;;;;;;4994827;28;20033;-49
2022/01/15 13:23:06;;;;;;;59.42;32.85;;;;;;;;;;4994636;28;20027;-47
2022/01/15 13:25:32;;;;;;;58.47;30.65;;;;;;;;;;4994690;28;20106;-49
2022/01/15 13:27:57;;;;;;;56.65;30.45;;;;;;;;;;4994621;28;20505;-49
2022/01/15 13:30:23;;;;;;;58.55;30.48;;;;;;;;;;4996036;28;20110;-46
2022/01/15 13:33:05;;;;;;;57.65;29.58;;;;;;;;;;4994590;28;20040;-49
2022/01/15 13:35:34;;;;;;;59.03;30.95;;;;;;;;;;4994633;28;20037;-46
2022/01/15 13:38:05;;;;;;;63.13;32.25;;;;;;;;;;5017562;23;20425;-49
2022/01/15 13:40:39;;;;;;;64.15;33.22;;;;;;;;;;5014497;28;20105;-49
2022/01/15 13:43:10;;;;;;;61.72;31.67;;;;;;;;;;4996537;28;20029;-47
2022/01/15 13:45:43;;;;;;;62.90;31.00;;;;;;;;;;5013868;28;20034;-46
2022/01/15 13:48:08;;;;;;;63.22;33.15;;;;;;;;;;5014143;28;20026;-47
2022/01/15 13:53:33;;;;;;;61.15;31.95;;;;;;;;;;5017890;28;20025;-47
2022/01/15 13:56:16;;;;;;;62.38;33.05;;;;;;;;;;5017831;28;20030;-48
2022/01/15 13:58:41;;;;;;;60.80;31.95;;;;;;;;;;5017880;28;20022;-48
2022/01/15 14:01:17;;;;;;;60.40;32.55;;;;;;;;;;5017729;28;20072;-48
2022/01/15 14:03:42;;;;;;;58.85;32.88;;;;;;;;;;5017877;28;20049;-49
2022/01/15 14:06:07;;;;;;;52.47;32.00;;;;;;;;;;5017713;28;20496;-51
2022/01/15 14:08:32;;;;;;;59.15;34.78;;;;;;;;;;5017522;28;20026;-47
2022/01/15 14:11:07;;;;;;;54.60;32.72;;;;;;;;;;5017889;28;20373;-49
2022/01/15 14:13:33;;;;;;;54.75;32.78;;;;;;;;;;5017560;28;20029;-47
2022/01/15 14:15:58;;;;;;;53.50;31.52;;;;;;;;;;5017298;28;20018;-48
2022/01/15 14:18:30;;;;;;;48.30;29.17;;;;;;;;;;5017521;28;20033;-50
2022/01/15 14:23:27;;;;;;;50.70;29.48;;;;;;;;;;5017311;28;20022;-49
2022/01/15 14:25:58;;;;;;;48.10;28.17;;;;;;;;;;5017321;28;20385;-47
2022/01/15 14:28:23;;;;;;;50.10;30.42;;;;;;;;;;5017227;28;20014;-52
2022/01/15 14:30:54;;;;;;;51.88;30.42;;;;;;;;;;5017077;28;20483;-50
2022/01/15 14:33:19;;;;;;;50.60;29.23;;;;;;;;;;5017284;28;20112;-48
2022/01/15 14:35:45;;;;;;;56.58;32.15;;;;;;;;;;5017114;28;20117;-49
2022/01/15 14:38:11;;;;;;;51.10;29.60;;;;;;;;;;5016872;28;20053;-50
2022/01/15 14:40:36;;;;;;;52.75;30.52;;;;;;;;;;5016960;28;20040;-49
2022/01/15 14:43:02;;;;;;;52.95;30.38;;;;;;;;;;5017026;28;20021;-48